createdAt,value
2023-01-13T00:01:37.663Z,100069.25
2023-01-13T00:04:08.402Z,100072.28
2023-01-13T00:06:39.035Z,100069.19
2023-01-13T00:09:09.545Z,100064.38
2023-01-13T00:11:40.092Z,100060.28
2023-01-13T00:14:12.198Z,100056.19
2023-01-13T00:16:42.749Z,100041.78
2023-01-13T00:19:13.399Z,100046.16
2023-01-13T00:21:44.881Z,100027.50
2023-01-13T00:24:15.511Z,100029.53
2023-01-13T00:26:46.116Z,100022.78
2023-01-13T00:29:21.211Z,100023.91
2023-01-13T00:31:53.125Z,100012.09
2023-01-13T00:34:24.680Z,100012.31
2023-01-13T00:36:55.574Z,100003.00
2023-01-13T00:39:26.227Z,99991.94
2023-01-13T00:42:13.450Z,99971.31
2023-01-13T00:44:45.701Z,99971.56
2023-01-13T00:47:16.512Z,99963.19
2023-01-13T00:49:47.679Z,99956.47
2023-01-13T00:52:18.567Z,99948.03
2023-01-13T00:54:49.865Z,99939.59
2023-01-13T00:57:21.336Z,99957.66
2023-01-13T00:59:53.736Z,99960.19
2023-01-13T01:02:24.798Z,99963.66
2023-01-13T01:04:55.517Z,99944.88
2023-01-13T01:07:26.174Z,99930.50
2023-01-13T01:09:57.033Z,99923.72
2023-01-13T01:12:27.697Z,99908.31
2023-01-13T01:15:00.012Z,99911.81
2023-01-13T01:17:31.424Z,99891.75
2023-01-13T01:20:01.845Z,99919.44
2023-01-13T01:22:32.476Z,99925.13
2023-01-13T01:25:02.935Z,99914.56
2023-01-13T01:27:33.377Z,99913.59
2023-01-13T01:30:05.577Z,99903.06
2023-01-13T01:32:37.524Z,99862.56
2023-01-13T01:35:08.845Z,99874.59
2023-01-13T01:37:39.337Z,99864.34
2023-01-13T01:40:10.877Z,99869.69
2023-01-13T01:42:58.337Z,99862.38
2023-01-13T01:45:33.418Z,99858.97
2023-01-13T01:48:07.388Z,99836.06
2023-01-13T01:50:39.083Z,99818.13
2023-01-13T01:53:15.493Z,99807.84
2023-01-13T01:55:46.322Z,99809.78
2023-01-13T01:58:21.804Z,99777.41
2023-01-13T02:00:54.401Z,99774.19
2023-01-13T02:03:25.429Z,99774.31
2023-01-13T02:05:56.243Z,99750.34
2023-01-13T02:08:26.907Z,99764.28
2023-01-13T02:10:57.683Z,99776.31
2023-01-13T02:13:27.080Z,99776.31
2023-01-13T02:16:06.263Z,99755.66
2023-01-13T02:18:53.422Z,99767.63
2023-01-13T02:21:43.983Z,99756.28
2023-01-13T02:24:56.505Z,99754.47
2023-01-13T02:27:46.230Z,99748.94
2023-01-13T02:30:43.537Z,99728.16
2023-01-13T02:33:31.578Z,99763.22
2023-01-13T02:36:08.559Z,99768.19
2023-01-13T02:38:46.695Z,99778.22
2023-01-13T02:41:54.910Z,99790.06
2023-01-13T02:44:31.259Z,99772.56
2023-01-13T02:47:09.273Z,99776.78
2023-01-13T02:49:43.598Z,99734.34
2023-01-13T02:52:16.979Z,99729.06
2023-01-13T02:54:51.915Z,99756.78
2023-01-13T02:57:25.034Z,99745.47
2023-01-13T02:59:58.468Z,99748.00
2023-01-13T03:02:31.669Z,99735.97
2023-01-13T03:05:03.123Z,99734.25
2023-01-13T03:07:57.933Z,99737.78
2023-01-13T03:10:48.344Z,99722.56
2023-01-13T03:13:31.836Z,99726.25
2023-01-13T03:16:13.999Z,99724.75
2023-01-13T03:18:53.713Z,99712.91
2023-01-13T03:21:28.886Z,99710.50
2023-01-13T03:24:06.328Z,99692.47
2023-01-13T03:26:44.000Z,99694.25
2023-01-13T03:29:21.531Z,99651.16
2023-01-13T03:32:00.950Z,99691.75
2023-01-13T03:34:38.023Z,99679.00
2023-01-13T03:37:11.095Z,99677.44
2023-01-13T03:39:47.338Z,99671.50
2023-01-13T03:42:22.423Z,99664.75
2023-01-13T03:44:57.274Z,99662.19
2023-01-13T03:47:34.174Z,99657.13
2023-01-13T03:50:09.312Z,99657.22
2023-01-13T03:52:44.068Z,99659.84
2023-01-13T03:55:19.379Z,99639.19
2023-01-13T03:57:55.497Z,99617.63
2023-01-13T04:00:29.262Z,99638.44
2023-01-13T04:03:07.763Z,99622.13
2023-01-13T04:05:44.824Z,99611.88
2023-01-13T04:08:22.287Z,99611.06
2023-01-13T04:10:56.291Z,99604.25
2023-01-13T04:13:31.315Z,99594.03
2023-01-13T04:16:08.488Z,99592.34
2023-01-13T04:18:41.763Z,99552.81
2023-01-13T04:21:14.136Z,99577.88
2023-01-13T04:23:45.396Z,99568.53
2023-01-13T04:26:16.023Z,99568.59
2023-01-13T04:28:46.518Z,99567.84
2023-01-13T04:31:17.379Z,99553.25
2023-01-13T04:33:48.043Z,99551.56
2023-01-13T04:36:20.537Z,99547.28
2023-01-13T04:38:51.117Z,99553.38
2023-01-13T04:41:21.805Z,99553.47
2023-01-13T04:43:52.532Z,99548.31
2023-01-13T04:46:23.265Z,99544.84
2023-01-13T04:48:53.898Z,99515.53
2023-01-13T04:51:26.091Z,99544.84
2023-01-13T04:53:56.599Z,99540.59
2023-01-13T04:56:27.218Z,99550.00
2023-01-13T04:58:57.656Z,99556.06
2023-01-13T05:01:28.326Z,99556.06
2023-01-13T05:03:58.979Z,99541.38
2023-01-13T05:06:31.179Z,99546.59
2023-01-13T05:09:01.728Z,99539.59
2023-01-13T05:11:49.269Z,99545.66
2023-01-13T05:14:36.560Z,99555.13
2023-01-13T05:17:07.125Z,99558.59
2023-01-13T05:19:39.967Z,99543.13
2023-01-13T05:22:28.997Z,99544.81
2023-01-13T05:25:16.384Z,99546.53
2023-01-13T05:27:47.086Z,99539.63
2023-01-13T05:30:18.290Z,99519.81
2023-01-13T05:32:49.043Z,99544.75
2023-01-13T05:35:19.950Z,99524.94
2023-01-13T05:37:52.318Z,99541.19
2023-01-13T05:40:39.653Z,99532.63
2023-01-13T05:43:23.757Z,99530.97
2023-01-13T05:45:58.665Z,99537.84
2023-01-13T05:48:31.552Z,99512.88
2023-01-13T05:51:03.032Z,99518.91
2023-01-13T05:53:35.692Z,99511.16
2023-01-13T05:56:07.795Z,99505.97
2023-01-13T05:58:38.708Z,99510.31
2023-01-13T06:01:10.991Z,99477.50
2023-01-13T06:03:41.687Z,99510.25
2023-01-13T06:06:12.202Z,99514.56
2023-01-13T06:08:44.726Z,99510.25
2023-01-13T06:11:15.235Z,99497.34
2023-01-13T06:13:45.751Z,99500.75
2023-01-13T06:16:16.410Z,99501.53
2023-01-13T06:18:46.896Z,99502.28
2023-01-13T06:21:17.383Z,99503.97
2023-01-13T06:23:49.650Z,99511.63
2023-01-13T06:26:23.215Z,99521.88
2023-01-13T06:28:54.023Z,99530.41
2023-01-13T06:31:24.925Z,99535.53
2023-01-13T06:33:59.788Z,99520.88
2023-01-13T06:36:34.033Z,99527.69
2023-01-13T06:39:07.589Z,99538.00
2023-01-13T06:41:54.827Z,99533.72
2023-01-13T06:44:27.178Z,99531.09
2023-01-13T06:46:57.801Z,99525.09
2023-01-13T06:49:28.419Z,99515.59
2023-01-13T06:51:59.116Z,99504.38
2023-01-13T06:54:31.623Z,99506.97
2023-01-13T06:57:02.252Z,99507.78
2023-01-13T06:59:35.121Z,99518.06
2023-01-13T07:02:06.166Z,99423.13
2023-01-13T07:04:36.877Z,99520.56
2023-01-13T07:07:08.611Z,99517.09
2023-01-13T07:09:40.712Z,99512.78
2023-01-13T07:12:11.378Z,99503.41
2023-01-13T07:14:58.885Z,99506.78
2023-01-13T07:17:29.307Z,99508.53
2023-01-13T07:20:02.606Z,99504.25
2023-01-13T07:22:33.104Z,99491.28
2023-01-13T07:25:05.191Z,99501.69
2023-01-13T07:27:35.699Z,99501.69
2023-01-13T07:30:06.955Z,99506.78
2023-01-13T07:32:37.522Z,99504.22
2023-01-13T07:35:09.001Z,99505.94
2023-01-13T07:37:40.641Z,99511.88
2023-01-13T07:40:14.204Z,99497.19
2023-01-13T07:43:01.722Z,99500.75
2023-01-13T07:45:32.269Z,99515.28
2023-01-13T07:48:02.761Z,99521.31
2023-01-13T07:50:33.253Z,99518.72
2023-01-13T07:53:03.815Z,99523.81
2023-01-13T07:55:35.877Z,99512.63
2023-01-13T07:58:07.273Z,99512.59
2023-01-13T08:00:38.737Z,99516.03
2023-01-13T08:03:12.325Z,99516.75
2023-01-13T08:05:43.034Z,99511.56
2023-01-13T08:08:15.833Z,99505.44
2023-01-13T08:10:48.810Z,99529.38
2023-01-13T08:13:28.173Z,99519.84
2023-01-13T08:16:04.449Z,99494.69
2023-01-13T08:19:00.245Z,99527.47
2023-01-13T08:38:08.890Z,99541.84
2023-01-13T09:34:25.340Z,99536.72
2023-01-13T09:36:56.764Z,99531.38
2023-01-13T09:39:27.304Z,99528.88
2023-01-13T09:42:17.425Z,99507.22
2023-01-13T09:44:51.379Z,99517.44
2023-01-13T09:47:34.788Z,99520.78
2023-01-13T09:50:20.809Z,99522.44
2023-01-13T09:52:54.345Z,99520.84
2023-01-13T09:55:31.481Z,99508.91
2023-01-13T09:58:08.671Z,99512.19
2023-01-13T10:00:48.027Z,99510.63
2023-01-13T10:03:25.289Z,99500.50
2023-01-13T10:06:05.670Z,99516.94
2023-01-13T10:08:41.355Z,99470.06
2023-01-13T10:11:34.631Z,99505.56
2023-01-13T10:14:17.598Z,99514.88
2023-01-13T10:17:00.131Z,99503.31
2023-01-13T10:19:39.920Z,99522.31
2023-01-13T10:22:30.940Z,99522.31
2023-01-13T10:25:35.218Z,99515.19
2023-01-13T10:28:13.249Z,99516.78
2023-01-13T10:30:47.108Z,99521.59
2023-01-13T10:34:07.107Z,99518.28
2023-01-13T10:40:22.991Z,99534.00
2023-01-13T10:47:28.016Z,99535.59
2023-01-13T10:50:21.267Z,99518.72
2023-01-13T10:53:04.379Z,99521.91
2023-01-13T10:56:04.866Z,99525.22
2023-01-13T10:58:36.407Z,99522.78
2023-01-13T11:01:10.666Z,99525.72
2023-01-13T11:03:45.474Z,99534.56
2023-01-13T11:06:25.374Z,99538.16
2023-01-13T11:08:59.411Z,99539.13
2023-01-13T11:11:48.455Z,99552.22
2023-01-13T11:14:38.038Z,99549.75
2023-01-13T11:17:32.172Z,99578.94
2023-01-13T11:20:17.758Z,99541.84
2023-01-13T11:22:52.559Z,99569.50
2023-01-13T11:25:33.413Z,99576.66
2023-01-13T11:28:17.915Z,99580.03
2023-01-13T11:30:54.427Z,99556.22
2023-01-13T11:33:42.034Z,99590.34
2023-01-13T11:36:20.407Z,99601.66
2023-01-13T11:38:54.567Z,99597.41
2023-01-13T11:41:35.710Z,99597.81
2023-01-13T11:44:21.236Z,99536.72
2023-01-13T11:46:54.812Z,99609.50
2023-01-13T11:49:30.102Z,99523.44
2023-01-13T11:52:08.112Z,99560.22
2023-01-13T11:55:12.408Z,99617.50
2023-01-13T11:58:07.392Z,99614.00
2023-01-13T12:00:58.742Z,99624.09
2023-01-13T12:03:42.414Z,99556.63
2023-01-13T12:06:26.351Z,99622.22
2023-01-13T12:09:28.498Z,99607.56
2023-01-13T12:12:24.082Z,99631.66
2023-01-13T12:15:11.658Z,99641.94
2023-01-13T12:17:59.994Z,99647.94
2023-01-13T12:20:41.803Z,99648.06
2023-01-13T12:23:25.227Z,99661.97
2023-01-13T12:26:02.266Z,99623.34
2023-01-13T12:28:47.589Z,99650.44
2023-01-13T12:31:21.862Z,99655.56
2023-01-13T12:38:29.180Z,99607.66
2023-01-13T12:41:09.472Z,99675.84
2023-01-13T12:44:08.107Z,99644.28
2023-01-13T12:47:01.921Z,99702.81
2023-01-13T12:49:49.460Z,99703.31
2023-01-13T12:52:20.988Z,99647.69
2023-01-13T12:55:20.007Z,99716.00
2023-01-13T12:58:18.815Z,99729.56
2023-01-13T13:01:03.057Z,99744.56
2023-01-13T13:03:38.399Z,99751.16
2023-01-13T13:06:20.581Z,99739.50
2023-01-13T13:09:05.754Z,99744.22
2023-01-13T13:15:22.225Z,99709.47
2023-01-13T13:22:20.290Z,99808.78
2023-01-13T13:25:32.391Z,99807.50
2023-01-13T13:32:15.568Z,99810.41
2023-01-13T13:35:15.925Z,99798.00
2023-01-13T13:38:32.323Z,99799.00
2023-01-13T13:44:55.555Z,99793.69
2023-01-13T13:50:40.407Z,99805.34
2023-01-13T13:56:56.614Z,99824.31
2023-01-13T14:08:07.321Z,99822.38
2023-01-13T14:10:43.407Z,99863.09
2023-01-13T14:13:45.462Z,99850.97
2023-01-13T14:20:51.094Z,99837.94
2023-01-13T14:24:59.345Z,99876.44
2023-01-13T14:28:02.266Z,99873.66
2023-01-13T14:49:38.415Z,99885.22
2023-01-13T14:53:32.182Z,99894.00
2023-01-13T15:15:07.818Z,99911.25
2023-01-13T15:18:58.615Z,99919.59
2023-01-13T15:21:40.513Z,99921.78
2023-01-13T15:25:20.362Z,99948.22
2023-01-13T15:28:36.220Z,99909.94
2023-01-13T15:31:21.877Z,99960.03
2023-01-13T15:34:36.395Z,99968.50
2023-01-13T15:45:13.706Z,99987.78
2023-01-13T15:52:12.343Z,100014.28
2023-01-13T15:59:02.145Z,100039.63
2023-01-13T16:32:20.931Z,100085.78
2023-01-13T16:41:44.679Z,100096.28
2023-01-13T16:54:52.152Z,100090.91
2023-01-13T17:08:40.332Z,100127.44
2023-01-13T17:14:36.190Z,100139.66
2023-01-13T17:27:25.374Z,100166.00
2023-01-13T17:38:33.307Z,100177.88
2023-01-13T17:41:31.136Z,100168.75
2023-01-13T17:54:47.823Z,100191.19
2023-01-13T17:58:16.560Z,100204.50
2023-01-13T18:13:10.533Z,100212.59
2023-01-13T18:54:31.776Z,100251.81
2023-01-13T19:00:44.819Z,100248.03
2023-01-13T19:03:15.546Z,100247.88
2023-01-13T19:05:48.245Z,100257.22
2023-01-13T19:08:19.164Z,100265.63
2023-01-13T19:10:50.779Z,100256.00
2023-01-13T19:13:21.419Z,100266.84
2023-01-13T19:15:53.736Z,100265.44
2023-01-13T19:18:27.833Z,100266.13
2023-01-13T19:21:05.246Z,100274.03
2023-01-13T19:23:36.636Z,100280.94
2023-01-13T19:26:09.107Z,100276.31
2023-01-13T19:28:41.821Z,100266.59
2023-01-13T19:31:21.454Z,100294.53
2023-01-13T19:33:52.310Z,100260.59
2023-01-13T19:36:23.330Z,100303.47
2023-01-13T19:38:54.068Z,100299.78
2023-01-13T19:41:41.185Z,100297.50
2023-01-13T19:44:30.866Z,100269.09
2023-01-13T19:47:04.535Z,100295.38
2023-01-13T19:49:35.197Z,100303.75
2023-01-13T19:52:08.890Z,100319.53
2023-01-13T19:54:39.955Z,100326.94
2023-01-13T19:57:11.885Z,100319.38
2023-01-13T19:59:43.130Z,100333.97
2023-01-13T20:02:18.302Z,100327.38
2023-01-13T20:04:49.736Z,100346.56
2023-01-13T20:07:20.942Z,100349.00
2023-01-13T20:09:51.638Z,100342.66
2023-01-13T20:12:22.688Z,100353.66
2023-01-13T20:14:53.546Z,100337.13
2023-01-13T20:17:27.881Z,100345.69
2023-01-13T20:19:59.767Z,100357.97
2023-01-13T20:22:30.564Z,100359.31
2023-01-13T20:25:01.290Z,100364.66
2023-01-13T20:27:31.853Z,100379.34
2023-01-13T20:30:04.377Z,100379.53
2023-01-13T20:32:36.717Z,100388.09
2023-01-13T20:35:08.652Z,100382.63
2023-01-13T20:37:41.088Z,100389.16
2023-01-13T20:40:16.160Z,100399.94
2023-01-13T20:42:48.480Z,100395.63
2023-01-13T20:45:22.448Z,100395.03
2023-01-13T20:47:54.641Z,100409.78
2023-01-13T20:50:25.310Z,100409.03
2023-01-13T20:52:55.888Z,100350.91
2023-01-13T20:55:27.169Z,100427.84
2023-01-13T20:57:58.897Z,100433.50
2023-01-13T21:03:16.124Z,100434.03
2023-01-13T21:05:46.664Z,100441.50
2023-01-13T21:08:17.263Z,100445.81
2023-01-13T21:10:47.938Z,100445.88
2023-01-13T21:13:35.202Z,100450.53
2023-01-13T21:16:06.002Z,100437.84
2023-01-13T21:18:55.537Z,100445.97
2023-01-13T21:21:26.654Z,100446.34
2023-01-13T21:23:57.650Z,100447.69
2023-01-13T21:26:28.587Z,100430.94
2023-01-13T21:29:00.759Z,100383.09
2023-01-13T21:31:31.291Z,100450.91
2023-01-13T21:34:03.346Z,100455.94
2023-01-13T21:36:33.785Z,100448.81
2023-01-13T21:39:04.331Z,100448.63
2023-01-13T21:41:51.590Z,100450.28
2023-01-13T21:44:39.901Z,100474.94
2023-01-13T21:47:34.626Z,100412.06
2023-01-13T21:50:09.780Z,100467.59
2023-01-13T21:52:40.444Z,100431.19
2023-01-13T21:55:25.673Z,100480.34
2023-01-13T21:57:57.676Z,100481.00
2023-01-13T22:00:30.678Z,100468.94
2023-01-13T22:03:01.092Z,100482.56
2023-01-13T22:05:36.287Z,100447.41
2023-01-13T22:08:07.282Z,100490.22
2023-01-13T22:10:58.225Z,100492.88
2023-01-13T22:13:47.632Z,100497.66
2023-01-13T22:16:18.616Z,100501.28
2023-01-13T22:18:49.085Z,100500.06
2023-01-13T22:21:21.407Z,100493.13
2023-01-13T22:23:51.879Z,100505.41
2023-01-13T22:26:22.413Z,100509.03
2023-01-13T22:28:52.865Z,100510.56
2023-01-13T22:31:25.633Z,100508.34
2023-01-13T22:33:57.135Z,100401.56
2023-01-13T22:36:29.272Z,100522.53
2023-01-13T22:39:01.305Z,100540.75
2023-01-13T22:41:31.756Z,100543.56
2023-01-13T22:44:02.241Z,100556.16
2023-01-13T22:46:32.666Z,100561.72
2023-01-13T22:49:03.195Z,100533.94
2023-01-13T22:51:35.485Z,100571.09
2023-01-13T22:54:05.970Z,100569.13
2023-01-13T22:56:36.985Z,100585.75
2023-01-13T22:59:10.375Z,100590.38
2023-01-13T23:01:40.924Z,100593.19
2023-01-13T23:04:13.671Z,100600.47
2023-01-13T23:06:45.802Z,100612.84
2023-01-13T23:09:16.298Z,100568.88
2023-01-13T23:11:47.836Z,100566.13
2023-01-13T23:14:18.532Z,100567.13
2023-01-13T23:16:49.314Z,100597.06
2023-01-13T23:19:19.847Z,100615.94
2023-01-13T23:21:51.904Z,100606.16
2023-01-13T23:24:26.605Z,100611.19
2023-01-13T23:26:57.033Z,100602.66
2023-01-13T23:29:27.561Z,100599.59
2023-01-13T23:31:58.030Z,100606.56
2023-01-13T23:34:28.648Z,100619.91
2023-01-13T23:37:01.001Z,100589.09
2023-01-13T23:39:31.651Z,100615.00
2023-01-13T23:42:02.245Z,100612.47
2023-01-13T23:44:32.864Z,100614.50
2023-01-13T23:47:18.061Z,100617.53
2023-01-13T23:49:48.986Z,100579.03
2023-01-13T23:52:22.184Z,100609.72
2023-01-13T23:54:53.996Z,100602.94
2023-01-13T23:57:26.795Z,100599.03
2023-01-13T23:59:58.957Z,100608.66
